Airfield :
LOGIN :

Register | Disclaimer

   EN    FR    IT 

 










Legend :    VFR   Marginal VFR   IFR   Intensive IFR   Very Intensive IFR
Visi :
Ceiling :
>= 8 km
>= 3000ft
5 to 8 km
1000 to 3000 ft
1500m to 5 km
500 to 1000 ft
800 to 1500m
200 to 500 ft
< 800m
< 200 ft
Symbols :   Thunderstorms  Fog  Heavy snow  Heavy precipitations  Wind > 20 kt
SIGMETs :     Misc.  Thunderstorms  Icing  Turbulence  Mountain Waves  Volcanic Ashes







- Airport Elevation : 274 ft
- IATA code : PUY


LDPL - Pula

CURRENT METAR :
  • 180600Z 06011KT CAVOK 09/03 Q1016 NOSIG

EXPIRED METARs :
  • 180530Z 07011KT CAVOK 09/03 Q1016 NOSIG
  • 180500Z 07011KT CAVOK 09/03 Q1016 NOSIG
  • 180430Z AUTO 07012KT CAVOK 09/03 Q1016 NOSIG
  • 180400Z AUTO 07011KT CAVOK 09/04 Q1016 NOSIG
  • 180330Z AUTO 07008KT CAVOK 07/03 Q1016 NOSIG

TAF COR TAF LDPL
Valid from the 18 at 06:00 until the 19 at 06:00 UTC


180520Z 1806/1906 07012KT CAVOK TX13/1813Z TN03/1905Z
BECMG 1817/1819 VRB02KT
No reported NOTAMs for that airfield.



MET'MAP, your aeronautical weather chart ! - Copyright ORBIFLY December 2007 - Disclaimer

ORBIFLY MET'MAP TEAM :

Programming & Development : Alexandra Zaïnal
Concept & Development : Baudouin d'Aumeries
Co-Development & Prog : Marc-Olivier Méhu
Technical & hardware support : Manuel Goepfert

Contact : metmap@orbifly.com




SOURCES & CREDITS :

   NOAA